sensor_id;sensor_type;location;lat;lon;timestamp;P1;durP1;ratioP1;P2;durP2;ratioP2
46753;SDS011;32500;50.620;3.400;2024-03-02T00:00:08;145.13;;;56.03;;
46753;SDS011;32500;50.620;3.400;2024-03-02T00:02:44;144.27;;;55.67;;
46753;SDS011;32500;50.620;3.400;2024-03-02T00:05:11;145.10;;;55.50;;
46753;SDS011;32500;50.620;3.400;2024-03-02T00:07:39;144.88;;;55.47;;
46753;SDS011;32500;50.620;3.400;2024-03-02T00:10:10;143.82;;;55.65;;
46753;SDS011;32500;50.620;3.400;2024-03-02T00:12:40;144.38;;;55.85;;
46753;SDS011;32500;50.620;3.400;2024-03-02T00:15:07;144.98;;;55.67;;
46753;SDS011;32500;50.620;3.400;2024-03-02T00:17:48;143.95;;;55.40;;
46753;SDS011;32500;50.620;3.400;2024-03-02T00:20:18;143.75;;;55.50;;
46753;SDS011;32500;50.620;3.400;2024-03-02T00:22:47;144.27;;;55.58;;
46753;SDS011;32500;50.620;3.400;2024-03-02T00:25:14;144.00;;;55.78;;
46753;SDS011;32500;50.620;3.400;2024-03-02T00:27:39;143.48;;;55.55;;
46753;SDS011;32500;50.620;3.400;2024-03-02T00:30:06;143.30;;;55.33;;
46753;SDS011;32500;50.620;3.400;2024-03-02T00:32:59;143.20;;;55.22;;
46753;SDS011;32500;50.620;3.400;2024-03-02T00:35:25;144.65;;;55.75;;
46753;SDS011;32500;50.620;3.400;2024-03-02T00:37:51;144.15;;;55.70;;
46753;SDS011;32500;50.620;3.400;2024-03-02T00:40:16;143.63;;;55.60;;
46753;SDS011;32500;50.620;3.400;2024-03-02T00:42:44;143.68;;;55.53;;
46753;SDS011;32500;50.620;3.400;2024-03-02T00:45:09;143.30;;;55.33;;
46753;SDS011;32500;50.620;3.400;2024-03-02T00:47:38;142.75;;;54.97;;
46753;SDS011;32500;50.620;3.400;2024-03-02T00:50:05;143.10;;;55.15;;
46753;SDS011;32500;50.620;3.400;2024-03-02T00:52:31;143.20;;;55.15;;
46753;SDS011;32500;50.620;3.400;2024-03-02T00:54:58;143.50;;;55.35;;
46753;SDS011;32500;50.620;3.400;2024-03-02T00:57:24;143.63;;;55.40;;
46753;SDS011;32500;50.620;3.400;2024-03-02T00:59:51;142.57;;;55.17;;
46753;SDS011;32500;50.620;3.400;2024-03-02T01:02:17;143.15;;;55.20;;
46753;SDS011;32500;50.620;3.400;2024-03-02T01:04:45;143.15;;;55.20;;
46753;SDS011;32500;50.620;3.400;2024-03-02T01:07:10;143.18;;;55.05;;
46753;SDS011;32500;50.620;3.400;2024-03-02T01:09:36;143.07;;;55.28;;
46753;SDS011;32500;50.620;3.400;2024-03-02T01:12:02;143.45;;;55.25;;
46753;SDS011;32500;50.620;3.400;2024-03-02T01:14:27;141.80;;;54.83;;
46753;SDS011;32500;50.620;3.400;2024-03-02T01:16:53;143.07;;;55.50;;
46753;SDS011;32500;50.620;3.400;2024-03-02T01:19:19;143.23;;;55.35;;
46753;SDS011;32500;50.620;3.400;2024-03-02T01:21:44;142.95;;;55.25;;
46753;SDS011;32500;50.620;3.400;2024-03-02T01:24:10;143.52;;;55.42;;
46753;SDS011;32500;50.620;3.400;2024-03-02T01:26:36;143.15;;;55.40;;
46753;SDS011;32500;50.620;3.400;2024-03-02T01:29:01;143.23;;;55.33;;
46753;SDS011;32500;50.620;3.400;2024-03-02T01:31:27;142.27;;;55.05;;
46753;SDS011;32500;50.620;3.400;2024-03-02T01:33:53;142.63;;;55.25;;
46753;SDS011;32500;50.620;3.400;2024-03-02T01:36:19;142.60;;;55.28;;
46753;SDS011;32500;50.620;3.400;2024-03-02T01:38:44;141.95;;;55.17;;
46753;SDS011;32500;50.620;3.400;2024-03-02T01:41:10;142.70;;;55.05;;
46753;SDS011;32500;50.620;3.400;2024-03-02T01:43:36;141.95;;;55.03;;
46753;SDS011;32500;50.620;3.400;2024-03-02T01:46:02;142.85;;;55.17;;
46753;SDS011;32500;50.620;3.400;2024-03-02T01:48:28;142.18;;;55.13;;
46753;SDS011;32500;50.620;3.400;2024-03-02T01:50:54;143.15;;;55.47;;
46753;SDS011;32500;50.620;3.400;2024-03-02T01:53:20;142.65;;;55.22;;
46753;SDS011;32500;50.620;3.400;2024-03-02T01:55:46;142.95;;;55.42;;
46753;SDS011;32500;50.620;3.400;2024-03-02T01:58:11;142.60;;;55.22;;
46753;SDS011;32500;50.620;3.400;2024-03-02T02:00:37;142.45;;;55.15;;
46753;SDS011;32500;50.620;3.400;2024-03-02T02:03:03;141.68;;;54.70;;
46753;SDS011;32500;50.620;3.400;2024-03-02T02:05:29;141.50;;;54.88;;
46753;SDS011;32500;50.620;3.400;2024-03-02T02:07:54;142.75;;;55.17;;
46753;SDS011;32500;50.620;3.400;2024-03-02T02:10:20;141.70;;;54.90;;
46753;SDS011;32500;50.620;3.400;2024-03-02T02:12:46;142.45;;;55.25;;
46753;SDS011;32500;50.620;3.400;2024-03-02T02:15:24;142.70;;;55.38;;
46753;SDS011;32500;50.620;3.400;2024-03-02T02:17:51;142.25;;;55.25;;
46753;SDS011;32500;50.620;3.400;2024-03-02T02:20:17;141.25;;;54.63;;
46753;SDS011;32500;50.620;3.400;2024-03-02T02:23:00;140.75;;;54.80;;
46753;SDS011;32500;50.620;3.400;2024-03-02T02:25:34;141.07;;;54.85;;
46753;SDS011;32500;50.620;3.400;2024-03-02T02:28:00;142.15;;;54.85;;
46753;SDS011;32500;50.620;3.400;2024-03-02T02:30:30;142.60;;;54.95;;
46753;SDS011;32500;50.620;3.400;2024-03-02T02:32:58;141.73;;;55.03;;
46753;SDS011;32500;50.620;3.400;2024-03-02T02:35:24;140.77;;;54.72;;
46753;SDS011;32500;50.620;3.400;2024-03-02T02:37:49;141.85;;;55.05;;
46753;SDS011;32500;50.620;3.400;2024-03-02T02:40:17;142.07;;;54.88;;
46753;SDS011;32500;50.620;3.400;2024-03-02T02:42:45;141.45;;;54.95;;
46753;SDS011;32500;50.620;3.400;2024-03-02T02:45:11;141.35;;;54.95;;
46753;SDS011;32500;50.620;3.400;2024-03-02T02:47:39;143.02;;;54.95;;
46753;SDS011;32500;50.620;3.400;2024-03-02T02:50:08;141.95;;;54.97;;
46753;SDS011;32500;50.620;3.400;2024-03-02T02:52:35;140.50;;;54.50;;
46753;SDS011;32500;50.620;3.400;2024-03-02T02:55:07;141.40;;;54.88;;
46753;SDS011;32500;50.620;3.400;2024-03-02T02:57:34;141.77;;;55.15;;
46753;SDS011;32500;50.620;3.400;2024-03-02T03:00:06;141.07;;;54.67;;
46753;SDS011;32500;50.620;3.400;2024-03-02T03:02:36;141.55;;;55.08;;
46753;SDS011;32500;50.620;3.400;2024-03-02T03:05:03;141.40;;;54.75;;
46753;SDS011;32500;50.620;3.400;2024-03-02T03:07:31;140.68;;;54.80;;
46753;SDS011;32500;50.620;3.400;2024-03-02T03:09:57;141.05;;;54.83;;
46753;SDS011;32500;50.620;3.400;2024-03-02T03:12:22;141.82;;;55.17;;
46753;SDS011;32500;50.620;3.400;2024-03-02T03:14:48;142.82;;;55.38;;
46753;SDS011;32500;50.620;3.400;2024-03-02T03:17:13;140.77;;;54.60;;
46753;SDS011;32500;50.620;3.400;2024-03-02T03:19:39;141.07;;;54.42;;
46753;SDS011;32500;50.620;3.400;2024-03-02T03:22:05;141.30;;;54.65;;
46753;SDS011;32500;50.620;3.400;2024-03-02T03:24:31;141.00;;;54.78;;
46753;SDS011;32500;50.620;3.400;2024-03-02T03:26:58;140.98;;;55.05;;
46753;SDS011;32500;50.620;3.400;2024-03-02T03:29:23;140.32;;;54.70;;
46753;SDS011;32500;50.620;3.400;2024-03-02T03:31:49;140.82;;;54.90;;
46753;SDS011;32500;50.620;3.400;2024-03-02T03:34:15;141.63;;;55.15;;
46753;SDS011;32500;50.620;3.400;2024-03-02T03:36:41;141.63;;;55.13;;
46753;SDS011;32500;50.620;3.400;2024-03-02T03:39:07;140.90;;;54.67;;
46753;SDS011;32500;50.620;3.400;2024-03-02T03:41:33;141.40;;;54.80;;
46753;SDS011;32500;50.620;3.400;2024-03-02T03:43:58;140.30;;;54.38;;
46753;SDS011;32500;50.620;3.400;2024-03-02T03:46:24;141.55;;;54.85;;
46753;SDS011;32500;50.620;3.400;2024-03-02T03:48:50;140.50;;;54.67;;
46753;SDS011;32500;50.620;3.400;2024-03-02T03:51:15;140.40;;;54.55;;
46753;SDS011;32500;50.620;3.400;2024-03-02T03:53:41;141.15;;;54.60;;
46753;SDS011;32500;50.620;3.400;2024-03-02T03:56:07;140.98;;;54.90;;
46753;SDS011;32500;50.620;3.400;2024-03-02T03:58:32;140.57;;;54.65;;
46753;SDS011;32500;50.620;3.400;2024-03-02T04:00:58;140.45;;;54.75;;
46753;SDS011;32500;50.620;3.400;2024-03-02T04:03:24;141.45;;;54.80;;
46753;SDS011;32500;50.620;3.400;2024-03-02T04:05:50;141.48;;;54.60;;
46753;SDS011;32500;50.620;3.400;2024-03-02T04:08:16;141.45;;;55.00;;
46753;SDS011;32500;50.620;3.400;2024-03-02T04:10:42;140.88;;;54.72;;
46753;SDS011;32500;50.620;3.400;2024-03-02T04:13:07;140.40;;;54.83;;
46753;SDS011;32500;50.620;3.400;2024-03-02T04:15:33;141.13;;;54.40;;
46753;SDS011;32500;50.620;3.400;2024-03-02T04:17:59;140.73;;;55.10;;
46753;SDS011;32500;50.620;3.400;2024-03-02T04:20:24;141.02;;;54.90;;
46753;SDS011;32500;50.620;3.400;2024-03-02T04:22:50;140.50;;;54.92;;
46753;SDS011;32500;50.620;3.400;2024-03-02T04:25:16;140.85;;;54.92;;
46753;SDS011;32500;50.620;3.400;2024-03-02T04:27:41;139.85;;;54.58;;
46753;SDS011;32500;50.620;3.400;2024-03-02T04:30:07;141.75;;;54.67;;
46753;SDS011;32500;50.620;3.400;2024-03-02T04:32:33;140.73;;;54.90;;
46753;SDS011;32500;50.620;3.400;2024-03-02T04:34:59;140.93;;;55.15;;
46753;SDS011;32500;50.620;3.400;2024-03-02T04:37:24;140.85;;;55.08;;
46753;SDS011;32500;50.620;3.400;2024-03-02T04:39:50;140.13;;;54.38;;
46753;SDS011;32500;50.620;3.400;2024-03-02T04:42:16;140.80;;;54.80;;
46753;SDS011;32500;50.620;3.400;2024-03-02T04:44:41;139.50;;;54.47;;
46753;SDS011;32500;50.620;3.400;2024-03-02T04:47:07;140.30;;;54.72;;
46753;SDS011;32500;50.620;3.400;2024-03-02T04:49:33;140.63;;;54.75;;
46753;SDS011;32500;50.620;3.400;2024-03-02T04:51:58;140.48;;;54.47;;
46753;SDS011;32500;50.620;3.400;2024-03-02T04:54:24;140.73;;;54.78;;
46753;SDS011;32500;50.620;3.400;2024-03-02T04:56:50;140.05;;;54.63;;
46753;SDS011;32500;50.620;3.400;2024-03-02T04:59:16;139.43;;;54.30;;
46753;SDS011;32500;50.620;3.400;2024-03-02T05:01:43;139.98;;;54.58;;
46753;SDS011;32500;50.620;3.400;2024-03-02T05:04:08;140.63;;;54.70;;
46753;SDS011;32500;50.620;3.400;2024-03-02T05:06:37;140.88;;;54.92;;
46753;SDS011;32500;50.620;3.400;2024-03-02T05:09:04;139.73;;;54.75;;
46753;SDS011;32500;50.620;3.400;2024-03-02T05:11:30;139.27;;;54.30;;
46753;SDS011;32500;50.620;3.400;2024-03-02T05:14:04;140.55;;;54.63;;
46753;SDS011;32500;50.620;3.400;2024-03-02T05:16:34;139.52;;;54.40;;
46753;SDS011;32500;50.620;3.400;2024-03-02T05:19:00;140.02;;;54.53;;
46753;SDS011;32500;50.620;3.400;2024-03-02T05:21:26;140.02;;;54.22;;
46753;SDS011;32500;50.620;3.400;2024-03-02T05:23:52;138.80;;;54.03;;
46753;SDS011;32500;50.620;3.400;2024-03-02T05:26:17;140.18;;;54.78;;
46753;SDS011;32500;50.620;3.400;2024-03-02T05:28:43;140.05;;;54.47;;
46753;SDS011;32500;50.620;3.400;2024-03-02T05:31:12;141.32;;;54.78;;
46753;SDS011;32500;50.620;3.400;2024-03-02T05:33:41;139.82;;;54.65;;
46753;SDS011;32500;50.620;3.400;2024-03-02T05:36:06;138.77;;;54.13;;
46753;SDS011;32500;50.620;3.400;2024-03-02T05:38:34;140.48;;;54.63;;
46753;SDS011;32500;50.620;3.400;2024-03-02T05:41:00;139.00;;;54.13;;
46753;SDS011;32500;50.620;3.400;2024-03-02T05:43:26;139.85;;;54.75;;
46753;SDS011;32500;50.620;3.400;2024-03-02T05:45:51;140.25;;;54.53;;
46753;SDS011;32500;50.620;3.400;2024-03-02T05:48:17;140.70;;;54.85;;
46753;SDS011;32500;50.620;3.400;2024-03-02T05:50:43;140.13;;;54.10;;
46753;SDS011;32500;50.620;3.400;2024-03-02T05:53:09;139.95;;;54.55;;
46753;SDS011;32500;50.620;3.400;2024-03-02T05:55:34;140.93;;;54.33;;
46753;SDS011;32500;50.620;3.400;2024-03-02T05:58:00;138.80;;;53.88;;
46753;SDS011;32500;50.620;3.400;2024-03-02T06:00:31;139.38;;;54.42;;
46753;SDS011;32500;50.620;3.400;2024-03-02T06:02:58;139.55;;;54.28;;
46753;SDS011;32500;50.620;3.400;2024-03-02T06:05:24;140.02;;;54.50;;
46753;SDS011;32500;50.620;3.400;2024-03-02T06:07:50;139.13;;;54.03;;
46753;SDS011;32500;50.620;3.400;2024-03-02T06:10:15;139.15;;;54.15;;
46753;SDS011;32500;50.620;3.400;2024-03-02T06:12:42;139.30;;;54.50;;
46753;SDS011;32500;50.620;3.400;2024-03-02T06:15:08;139.50;;;54.33;;
46753;SDS011;32500;50.620;3.400;2024-03-02T06:17:35;138.90;;;54.35;;
46753;SDS011;32500;50.620;3.400;2024-03-02T06:20:01;139.32;;;54.55;;
46753;SDS011;32500;50.620;3.400;2024-03-02T06:22:27;140.55;;;54.63;;
46753;SDS011;32500;50.620;3.400;2024-03-02T06:24:53;138.63;;;54.30;;
46753;SDS011;32500;50.620;3.400;2024-03-02T06:27:19;139.63;;;54.35;;
46753;SDS011;32500;50.620;3.400;2024-03-02T06:29:44;139.52;;;54.28;;
46753;SDS011;32500;50.620;3.400;2024-03-02T06:32:10;138.98;;;54.05;;
46753;SDS011;32500;50.620;3.400;2024-03-02T06:34:36;140.13;;;54.70;;
46753;SDS011;32500;50.620;3.400;2024-03-02T06:37:01;141.15;;;54.83;;
46753;SDS011;32500;50.620;3.400;2024-03-02T06:39:27;140.38;;;54.70;;
46753;SDS011;32500;50.620;3.400;2024-03-02T06:41:53;140.07;;;54.58;;
46753;SDS011;32500;50.620;3.400;2024-03-02T06:44:18;139.27;;;54.35;;
46753;SDS011;32500;50.620;3.400;2024-03-02T06:46:44;140.77;;;54.38;;
46753;SDS011;32500;50.620;3.400;2024-03-02T06:49:10;140.35;;;54.10;;
46753;SDS011;32500;50.620;3.400;2024-03-02T06:51:35;140.50;;;54.78;;
46753;SDS011;32500;50.620;3.400;2024-03-02T06:54:01;140.48;;;54.22;;
46753;SDS011;32500;50.620;3.400;2024-03-02T06:56:27;140.45;;;54.28;;
46753;SDS011;32500;50.620;3.400;2024-03-02T06:58:53;138.15;;;53.92;;
46753;SDS011;32500;50.620;3.400;2024-03-02T07:01:18;140.90;;;54.42;;
46753;SDS011;32500;50.620;3.400;2024-03-02T07:03:47;140.70;;;54.70;;
46753;SDS011;32500;50.620;3.400;2024-03-02T07:06:13;139.98;;;54.45;;
46753;SDS011;32500;50.620;3.400;2024-03-02T07:08:39;138.77;;;54.10;;
46753;SDS011;32500;50.620;3.400;2024-03-02T07:11:05;139.10;;;54.33;;
46753;SDS011;32500;50.620;3.400;2024-03-02T07:13:30;141.13;;;54.42;;
46753;SDS011;32500;50.620;3.400;2024-03-02T07:15:56;139.93;;;54.42;;
46753;SDS011;32500;50.620;3.400;2024-03-02T07:18:28;139.43;;;54.40;;
46753;SDS011;32500;50.620;3.400;2024-03-02T07:20:58;141.43;;;54.47;;
46753;SDS011;32500;50.620;3.400;2024-03-02T07:23:25;141.60;;;54.78;;
46753;SDS011;32500;50.620;3.400;2024-03-02T07:25:55;141.60;;;54.17;;
46753;SDS011;32500;50.620;3.400;2024-03-02T07:28:22;140.90;;;54.38;;
46753;SDS011;32500;50.620;3.400;2024-03-02T07:30:57;139.75;;;54.70;;
46753;SDS011;32500;50.620;3.400;2024-03-02T07:33:24;140.32;;;54.72;;
46753;SDS011;32500;50.620;3.400;2024-03-02T07:35:49;139.90;;;54.17;;
46753;SDS011;32500;50.620;3.400;2024-03-02T07:38:15;139.40;;;54.58;;
46753;SDS011;32500;50.620;3.400;2024-03-02T07:40:41;138.55;;;54.10;;
46753;SDS011;32500;50.620;3.400;2024-03-02T07:43:07;139.20;;;54.00;;
46753;SDS011;32500;50.620;3.400;2024-03-02T07:45:33;139.60;;;54.75;;
46753;SDS011;32500;50.620;3.400;2024-03-02T07:48:01;139.15;;;54.22;;
46753;SDS011;32500;50.620;3.400;2024-03-02T07:50:29;139.35;;;54.55;;
46753;SDS011;32500;50.620;3.400;2024-03-02T07:52:55;140.07;;;54.72;;
46753;SDS011;32500;50.620;3.400;2024-03-02T07:55:21;140.10;;;54.63;;
46753;SDS011;32500;50.620;3.400;2024-03-02T07:57:48;138.23;;;54.35;;
46753;SDS011;32500;50.620;3.400;2024-03-02T08:00:15;139.23;;;54.47;;
46753;SDS011;32500;50.620;3.400;2024-03-02T08:02:41;139.02;;;54.22;;
46753;SDS011;32500;50.620;3.400;2024-03-02T08:05:07;140.15;;;54.60;;
46753;SDS011;32500;50.620;3.400;2024-03-02T08:07:33;140.20;;;54.65;;
46753;SDS011;32500;50.620;3.400;2024-03-02T08:09:59;144.00;;;54.42;;
46753;SDS011;32500;50.620;3.400;2024-03-02T08:12:25;139.80;;;54.53;;
46753;SDS011;32500;50.620;3.400;2024-03-02T08:14:50;140.55;;;54.70;;
46753;SDS011;32500;50.620;3.400;2024-03-02T08:17:16;139.90;;;54.58;;
46753;SDS011;32500;50.620;3.400;2024-03-02T08:19:42;139.48;;;54.42;;
46753;SDS011;32500;50.620;3.400;2024-03-02T08:22:09;141.07;;;54.45;;
46753;SDS011;32500;50.620;3.400;2024-03-02T08:24:35;144.02;;;56.20;;
46753;SDS011;32500;50.620;3.400;2024-03-02T08:27:01;143.85;;;56.30;;
46753;SDS011;32500;50.620;3.400;2024-03-02T08:29:27;142.98;;;56.17;;
46753;SDS011;32500;50.620;3.400;2024-03-02T08:31:53;147.13;;;55.97;;
46753;SDS011;32500;50.620;3.400;2024-03-02T08:34:19;144.77;;;55.72;;
46753;SDS011;32500;50.620;3.400;2024-03-02T08:36:45;145.88;;;55.88;;
46753;SDS011;32500;50.620;3.400;2024-03-02T08:39:11;144.23;;;55.83;;
46753;SDS011;32500;50.620;3.400;2024-03-02T08:41:46;143.70;;;55.75;;
46753;SDS011;32500;50.620;3.400;2024-03-02T08:44:12;147.02;;;56.05;;
46753;SDS011;32500;50.620;3.400;2024-03-02T08:46:39;141.75;;;55.08;;
46753;SDS011;32500;50.620;3.400;2024-03-02T08:49:05;143.95;;;55.25;;
46753;SDS011;32500;50.620;3.400;2024-03-02T08:51:31;144.20;;;55.75;;
46753;SDS011;32500;50.620;3.400;2024-03-02T08:53:57;144.68;;;55.80;;
46753;SDS011;32500;50.620;3.400;2024-03-02T08:56:24;144.27;;;55.50;;
46753;SDS011;32500;50.620;3.400;2024-03-02T08:58:50;147.48;;;55.85;;
46753;SDS011;32500;50.620;3.400;2024-03-02T09:01:16;151.82;;;56.08;;
46753;SDS011;32500;50.620;3.400;2024-03-02T09:03:43;149.05;;;55.70;;
46753;SDS011;32500;50.620;3.400;2024-03-02T09:06:12;153.75;;;56.08;;
46753;SDS011;32500;50.620;3.400;2024-03-02T09:08:38;145.85;;;55.88;;
46753;SDS011;32500;50.620;3.400;2024-03-02T09:11:05;147.55;;;55.40;;
46753;SDS011;32500;50.620;3.400;2024-03-02T09:13:31;146.27;;;56.00;;
46753;SDS011;32500;50.620;3.400;2024-03-02T09:15:58;147.00;;;56.13;;
46753;SDS011;32500;50.620;3.400;2024-03-02T09:18:24;149.43;;;55.90;;
46753;SDS011;32500;50.620;3.400;2024-03-02T09:20:49;146.18;;;54.95;;
46753;SDS011;32500;50.620;3.400;2024-03-02T09:23:15;147.13;;;55.55;;
46753;SDS011;32500;50.620;3.400;2024-03-02T09:25:41;145.30;;;55.67;;
46753;SDS011;32500;50.620;3.400;2024-03-02T09:28:06;144.68;;;55.45;;
46753;SDS011;32500;50.620;3.400;2024-03-02T09:30:32;145.60;;;55.65;;
46753;SDS011;32500;50.620;3.400;2024-03-02T09:32:58;147.75;;;55.30;;
46753;SDS011;32500;50.620;3.400;2024-03-02T09:35:24;146.52;;;55.67;;
46753;SDS011;32500;50.620;3.400;2024-03-02T09:37:49;147.80;;;55.70;;
46753;SDS011;32500;50.620;3.400;2024-03-02T09:40:15;146.45;;;55.95;;
46753;SDS011;32500;50.620;3.400;2024-03-02T09:42:41;146.48;;;55.90;;
46753;SDS011;32500;50.620;3.400;2024-03-02T09:45:08;146.50;;;55.88;;
46753;SDS011;32500;50.620;3.400;2024-03-02T09:47:35;146.85;;;55.95;;
46753;SDS011;32500;50.620;3.400;2024-03-02T09:50:01;145.07;;;55.83;;
46753;SDS011;32500;50.620;3.400;2024-03-02T09:52:26;152.23;;;55.85;;
46753;SDS011;32500;50.620;3.400;2024-03-02T09:54:52;144.20;;;55.75;;
46753;SDS011;32500;50.620;3.400;2024-03-02T09:57:18;146.00;;;55.72;;
46753;SDS011;32500;50.620;3.400;2024-03-02T09:59:44;145.07;;;55.85;;
46753;SDS011;32500;50.620;3.400;2024-03-02T10:02:10;146.48;;;55.78;;
46753;SDS011;32500;50.620;3.400;2024-03-02T10:04:36;145.73;;;55.78;;
46753;SDS011;32500;50.620;3.400;2024-03-02T10:09:37;149.48;;;56.08;;
46753;SDS011;32500;50.620;3.400;2024-03-02T10:12:04;146.77;;;55.97;;
46753;SDS011;32500;50.620;3.400;2024-03-02T10:14:31;147.48;;;55.85;;
46753;SDS011;32500;50.620;3.400;2024-03-02T10:17:04;147.45;;;55.58;;
46753;SDS011;32500;50.620;3.400;2024-03-02T10:19:30;148.27;;;55.55;;
46753;SDS011;32500;50.620;3.400;2024-03-02T10:22:03;146.95;;;55.75;;
46753;SDS011;32500;50.620;3.400;2024-03-02T10:29:48;148.23;;;55.47;;
46753;SDS011;32500;50.620;3.400;2024-03-02T10:32:15;144.85;;;55.50;;
46753;SDS011;32500;50.620;3.400;2024-03-02T10:34:41;144.07;;;55.85;;
46753;SDS011;32500;50.620;3.400;2024-03-02T10:37:10;144.38;;;55.03;;
46753;SDS011;32500;50.620;3.400;2024-03-02T10:39:36;143.68;;;55.40;;
46753;SDS011;32500;50.620;3.400;2024-03-02T10:42:04;145.70;;;55.20;;
46753;SDS011;32500;50.620;3.400;2024-03-02T10:44:31;144.82;;;55.75;;
46753;SDS011;32500;50.620;3.400;2024-03-02T10:47:01;145.50;;;55.65;;
46753;SDS011;32500;50.620;3.400;2024-03-02T10:49:29;145.60;;;55.63;;
46753;SDS011;32500;50.620;3.400;2024-03-02T10:51:56;143.02;;;55.22;;
46753;SDS011;32500;50.620;3.400;2024-03-02T10:54:25;145.38;;;55.67;;
46753;SDS011;32500;50.620;3.400;2024-03-02T10:56:52;146.10;;;55.67;;
46753;SDS011;32500;50.620;3.400;2024-03-02T11:01:57;144.90;;;55.42;;
46753;SDS011;32500;50.620;3.400;2024-03-02T11:04:24;144.90;;;55.47;;
46753;SDS011;32500;50.620;3.400;2024-03-02T11:06:51;143.25;;;55.20;;
46753;SDS011;32500;50.620;3.400;2024-03-02T11:09:22;144.43;;;55.40;;
46753;SDS011;32500;50.620;3.400;2024-03-02T11:14:22;145.70;;;55.40;;
46753;SDS011;32500;50.620;3.400;2024-03-02T11:16:50;144.93;;;55.60;;
46753;SDS011;32500;50.620;3.400;2024-03-02T11:19:17;144.57;;;55.25;;
46753;SDS011;32500;50.620;3.400;2024-03-02T11:21:43;146.45;;;55.20;;
46753;SDS011;32500;50.620;3.400;2024-03-02T11:26:53;149.07;;;55.05;;
46753;SDS011;32500;50.620;3.400;2024-03-02T11:34:52;146.70;;;55.40;;
46753;SDS011;32500;50.620;3.400;2024-03-02T11:37:18;147.13;;;55.08;;
46753;SDS011;32500;50.620;3.400;2024-03-02T11:39:45;145.38;;;55.55;;
46753;SDS011;32500;50.620;3.400;2024-03-02T11:42:12;146.02;;;55.65;;
46753;SDS011;32500;50.620;3.400;2024-03-02T11:44:45;146.35;;;55.63;;
46753;SDS011;32500;50.620;3.400;2024-03-02T11:47:15;145.98;;;55.25;;
46753;SDS011;32500;50.620;3.400;2024-03-02T11:49:42;147.48;;;55.60;;
46753;SDS011;32500;50.620;3.400;2024-03-02T11:52:10;144.68;;;55.53;;
46753;SDS011;32500;50.620;3.400;2024-03-02T11:54:38;145.10;;;55.40;;
46753;SDS011;32500;50.620;3.400;2024-03-02T11:57:05;144.73;;;55.20;;
46753;SDS011;32500;50.620;3.400;2024-03-02T11:59:34;144.98;;;55.67;;
46753;SDS011;32500;50.620;3.400;2024-03-02T12:02:00;145.23;;;55.42;;
46753;SDS011;32500;50.620;3.400;2024-03-02T12:04:27;142.25;;;55.50;;
46753;SDS011;32500;50.620;3.400;2024-03-02T12:06:59;145.85;;;55.28;;
46753;SDS011;32500;50.620;3.400;2024-03-02T12:09:26;142.07;;;55.20;;
46753;SDS011;32500;50.620;3.400;2024-03-02T12:12:07;146.13;;;55.75;;
46753;SDS011;32500;50.620;3.400;2024-03-02T12:14:35;146.23;;;55.95;;
46753;SDS011;32500;50.620;3.400;2024-03-02T12:17:02;146.38;;;56.55;;
46753;SDS011;32500;50.620;3.400;2024-03-02T12:19:28;145.90;;;56.47;;
46753;SDS011;32500;50.620;3.400;2024-03-02T12:21:55;146.57;;;56.90;;
46753;SDS011;32500;50.620;3.400;2024-03-02T12:24:22;150.05;;;59.47;;
46753;SDS011;32500;50.620;3.400;2024-03-02T12:26:49;153.40;;;60.63;;
46753;SDS011;32500;50.620;3.400;2024-03-02T12:29:16;151.00;;;59.30;;
46753;SDS011;32500;50.620;3.400;2024-03-02T12:31:43;153.15;;;59.55;;
46753;SDS011;32500;50.620;3.400;2024-03-02T12:34:11;149.10;;;59.92;;
46753;SDS011;32500;50.620;3.400;2024-03-02T12:36:41;152.50;;;58.97;;
46753;SDS011;32500;50.620;3.400;2024-03-02T12:39:08;152.90;;;60.90;;
46753;SDS011;32500;50.620;3.400;2024-03-02T12:41:37;158.52;;;60.67;;
46753;SDS011;32500;50.620;3.400;2024-03-02T12:44:03;162.23;;;60.17;;
46753;SDS011;32500;50.620;3.400;2024-03-02T12:46:30;155.48;;;59.78;;
46753;SDS011;32500;50.620;3.400;2024-03-02T12:48:56;152.70;;;59.85;;
46753;SDS011;32500;50.620;3.400;2024-03-02T12:51:22;154.90;;;59.25;;
46753;SDS011;32500;50.620;3.400;2024-03-02T12:53:54;150.50;;;58.63;;
46753;SDS011;32500;50.620;3.400;2024-03-02T12:56:21;151.10;;;58.40;;
46753;SDS011;32500;50.620;3.400;2024-03-02T12:58:47;152.25;;;58.17;;
46753;SDS011;32500;50.620;3.400;2024-03-02T13:01:14;150.63;;;58.65;;
46753;SDS011;32500;50.620;3.400;2024-03-02T13:03:43;151.80;;;58.07;;
46753;SDS011;32500;50.620;3.400;2024-03-02T13:06:09;149.48;;;57.92;;
46753;SDS011;32500;50.620;3.400;2024-03-02T13:08:35;152.30;;;57.80;;
46753;SDS011;32500;50.620;3.400;2024-03-02T13:11:01;152.88;;;57.97;;
46753;SDS011;32500;50.620;3.400;2024-03-02T13:13:30;150.95;;;57.95;;
46753;SDS011;32500;50.620;3.400;2024-03-02T13:15:56;150.65;;;58.10;;
46753;SDS011;32500;50.620;3.400;2024-03-02T13:18:22;151.05;;;57.85;;
46753;SDS011;32500;50.620;3.400;2024-03-02T13:20:47;150.50;;;57.67;;
46753;SDS011;32500;50.620;3.400;2024-03-02T13:23:13;152.40;;;57.20;;
46753;SDS011;32500;50.620;3.400;2024-03-02T13:25:39;150.65;;;57.55;;
46753;SDS011;32500;50.620;3.400;2024-03-02T13:28:05;149.32;;;57.67;;
46753;SDS011;32500;50.620;3.400;2024-03-02T13:30:31;148.90;;;57.35;;
46753;SDS011;32500;50.620;3.400;2024-03-02T13:32:57;149.98;;;57.80;;
46753;SDS011;32500;50.620;3.400;2024-03-02T13:35:23;153.15;;;57.72;;
46753;SDS011;32500;50.620;3.400;2024-03-02T13:37:49;152.85;;;57.60;;
46753;SDS011;32500;50.620;3.400;2024-03-02T13:40:15;149.05;;;57.50;;
46753;SDS011;32500;50.620;3.400;2024-03-02T13:42:48;151.55;;;57.83;;
46753;SDS011;32500;50.620;3.400;2024-03-02T13:45:15;148.77;;;57.13;;
46753;SDS011;32500;50.620;3.400;2024-03-02T13:47:43;149.93;;;57.70;;
46753;SDS011;32500;50.620;3.400;2024-03-02T13:50:08;149.15;;;57.38;;
46753;SDS011;32500;50.620;3.400;2024-03-02T13:52:34;151.38;;;59.25;;
46753;SDS011;32500;50.620;3.400;2024-03-02T13:55:00;158.48;;;63.78;;
46753;SDS011;32500;50.620;3.400;2024-03-02T13:57:26;158.93;;;63.22;;
46753;SDS011;32500;50.620;3.400;2024-03-02T13:59:51;155.25;;;61.42;;
46753;SDS011;32500;50.620;3.400;2024-03-02T14:02:17;154.60;;;61.75;;
46753;SDS011;32500;50.620;3.400;2024-03-02T14:04:43;156.25;;;61.00;;
46753;SDS011;32500;50.620;3.400;2024-03-02T14:07:09;157.07;;;60.45;;
46753;SDS011;32500;50.620;3.400;2024-03-02T14:09:38;155.50;;;60.22;;
46753;SDS011;32500;50.620;3.400;2024-03-02T14:12:04;152.63;;;60.75;;
46753;SDS011;32500;50.620;3.400;2024-03-02T14:14:30;159.80;;;61.10;;
46753;SDS011;32500;50.620;3.400;2024-03-02T14:16:56;157.15;;;60.47;;
46753;SDS011;32500;50.620;3.400;2024-03-02T14:19:25;154.27;;;60.45;;
46753;SDS011;32500;50.620;3.400;2024-03-02T14:21:52;156.13;;;59.92;;
46753;SDS011;32500;50.620;3.400;2024-03-02T14:24:17;160.52;;;60.33;;
46753;SDS011;32500;50.620;3.400;2024-03-02T14:26:43;156.95;;;59.55;;